Terminal Aerodrome Forecast
Issued by NWS

Home | Current Version | Previous Version | Text Only | Print | Product List | Glossary On
Versions: 1 2 3 4 5 6 7 8 9 10 11 12 13 14 15 16 17 18 19 20 21
000
FTUS45 KPIH 010300 AAC
TAFSUN
TAF AMD
KSUN 010359Z 0104/0124 31011KT P6SM SCT001 SCT150
     FM011500 VRB05KT P6SM BKN090 BKN130
      AMD LTD TO CLD VIS AND WIND 0106/0114=

USA.gov is the U.S. government's official web portal to all federal, state and local government web resources and services.